createdAt,value
2017-10-30T00:01:48.256Z,56.10
2017-10-30T00:04:14.823Z,56.10
2017-10-30T00:09:32.136Z,56.30
2017-10-30T00:11:59.133Z,56.20
2017-10-30T00:20:16.170Z,56.30
2017-10-30T00:22:44.285Z,56.50
2017-10-30T00:25:11.289Z,56.50
2017-10-30T00:30:44.624Z,56.70
2017-10-30T00:33:11.100Z,56.40
2017-10-30T00:38:46.892Z,56.80
2017-10-30T00:41:13.348Z,56.80
2017-10-30T00:43:40.168Z,56.60
2017-10-30T00:46:13.612Z,56.60
2017-10-30T00:48:41.225Z,56.80
2017-10-30T00:51:08.091Z,57.20
2017-10-30T00:53:34.614Z,56.70
2017-10-30T00:56:01.079Z,56.90
2017-10-30T00:58:30.322Z,57.00
2017-10-30T01:00:56.870Z,56.90
2017-10-30T01:03:23.463Z,56.90
2017-10-30T01:05:50.457Z,56.80
2017-10-30T01:08:16.978Z,57.10
2017-10-30T01:10:44.344Z,57.00
2017-10-30T01:13:14.847Z,57.10
2017-10-30T01:15:42.584Z,57.10
2017-10-30T01:18:09.331Z,56.80
2017-10-30T01:20:36.023Z,57.00
2017-10-30T01:26:06.146Z,56.70
2017-10-30T01:28:38.196Z,57.10
2017-10-30T01:31:05.000Z,57.30
2017-10-30T01:33:31.481Z,57.20
2017-10-30T01:35:57.927Z,57.40
2017-10-30T01:38:24.708Z,57.20
2017-10-30T01:40:51.020Z,57.30
2017-10-30T01:43:17.346Z,57.60
2017-10-30T01:48:46.331Z,57.60
2017-10-30T01:53:47.232Z,58.00
2017-10-30T01:56:13.752Z,58.00
2017-10-30T01:58:40.265Z,57.40
2017-10-30T02:01:06.976Z,57.70
2017-10-30T02:06:06.049Z,57.80
2017-10-30T02:08:40.889Z,58.20
2017-10-30T02:11:07.563Z,57.80
2017-10-30T02:25:22.597Z,58.60
2017-10-30T02:30:42.813Z,58.80
2017-10-30T02:36:19.238Z,58.70
2017-10-30T02:38:47.764Z,58.90
2017-10-30T02:41:15.214Z,58.90
2017-10-30T02:43:41.630Z,59.00
2017-10-30T02:51:54.244Z,58.60
2017-10-30T02:54:20.721Z,59.20
2017-10-30T02:56:47.593Z,58.90
2017-10-30T03:01:56.153Z,59.20
2017-10-30T03:04:23.205Z,59.40
2017-10-30T03:06:50.136Z,59.30
2017-10-30T03:09:17.850Z,59.40
2017-10-30T03:14:24.884Z,59.10
2017-10-30T03:16:53.334Z,59.10
2017-10-30T03:19:19.976Z,59.20
2017-10-30T03:21:46.506Z,59.30
2017-10-30T03:24:13.458Z,59.20
2017-10-30T03:26:39.894Z,59.20
2017-10-30T03:32:09.374Z,59.50
2017-10-30T03:40:13.477Z,60.00
2017-10-30T03:42:39.855Z,60.00
2017-10-30T03:45:06.268Z,60.00
2017-10-30T03:47:32.807Z,60.00
2017-10-30T03:50:07.480Z,60.00
2017-10-30T03:55:46.681Z,60.00
2017-10-30T04:01:16.207Z,59.90
2017-10-30T04:03:43.295Z,60.30
2017-10-30T04:06:29.332Z,60.10
2017-10-30T04:08:56.050Z,60.30
2017-10-30T04:11:22.679Z,60.80
2017-10-30T04:13:54.373Z,60.60
2017-10-30T04:16:45.810Z,60.60
2017-10-30T04:19:12.589Z,59.90
2017-10-30T04:24:43.286Z,60.00
2017-10-30T04:32:35.960Z,60.00
2017-10-30T04:35:04.900Z,60.00
2017-10-30T04:37:31.734Z,60.00
2017-10-30T04:39:58.562Z,61.00
2017-10-30T04:42:25.170Z,60.00
2017-10-30T04:44:58.447Z,60.00
2017-10-30T04:50:38.578Z,60.00
2017-10-30T04:58:30.565Z,59.90
2017-10-30T05:00:57.191Z,60.00
2017-10-30T05:03:23.863Z,60.00
2017-10-30T05:05:50.392Z,60.50
2017-10-30T05:08:16.659Z,60.00
2017-10-30T05:10:43.162Z,59.90
2017-10-30T05:13:09.430Z,59.80
2017-10-30T05:15:35.824Z,59.80
2017-10-30T05:18:02.495Z,60.00
2017-10-30T05:20:28.787Z,60.30
2017-10-30T05:22:57.015Z,60.00
2017-10-30T05:25:23.348Z,61.00
2017-10-30T05:27:49.969Z,60.40
2017-10-30T05:30:16.203Z,60.20
2017-10-30T05:32:42.828Z,59.90
2017-10-30T05:35:09.285Z,60.40
2017-10-30T05:37:35.803Z,59.90
2017-10-30T05:40:02.258Z,60.00
2017-10-30T05:42:28.976Z,60.20
2017-10-30T05:44:57.136Z,59.90
2017-10-30T05:47:26.523Z,60.00
2017-10-30T05:49:53.240Z,60.00
2017-10-30T05:52:19.586Z,60.00
2017-10-30T05:54:46.261Z,60.00
2017-10-30T05:57:13.375Z,60.00
2017-10-30T05:59:40.744Z,60.00
2017-10-30T06:02:07.038Z,60.00
2017-10-30T06:04:33.634Z,60.00
2017-10-30T06:07:00.168Z,60.00
2017-10-30T06:09:28.454Z,60.00
2017-10-30T06:11:54.806Z,60.00
2017-10-30T06:14:21.292Z,60.00
2017-10-30T06:16:47.613Z,60.00
2017-10-30T06:19:14.637Z,60.10
2017-10-30T06:21:40.956Z,60.00
2017-10-30T06:24:08.792Z,59.40
2017-10-30T06:26:35.174Z,59.50
2017-10-30T06:29:01.490Z,59.90
2017-10-30T06:31:28.087Z,59.40
2017-10-30T06:33:54.557Z,59.20
2017-10-30T06:36:21.137Z,59.20
2017-10-30T06:38:48.507Z,59.80
2017-10-30T06:41:15.915Z,59.20
2017-10-30T06:43:42.685Z,58.80
2017-10-30T06:46:15.767Z,58.90
2017-10-30T06:48:42.103Z,58.60
2017-10-30T06:51:15.275Z,58.40
2017-10-30T06:53:48.379Z,57.90
2017-10-30T06:56:14.868Z,57.90
2017-10-30T06:58:41.145Z,58.30
2017-10-30T07:01:07.694Z,58.20
2017-10-30T07:03:34.078Z,58.40
2017-10-30T07:06:00.586Z,58.00
2017-10-30T07:08:27.365Z,57.30
2017-10-30T07:10:53.841Z,57.00
2017-10-30T07:15:51.903Z,56.60
2017-10-30T07:18:19.010Z,56.40
2017-10-30T07:20:45.336Z,56.40
2017-10-30T07:23:13.042Z,55.80
2017-10-30T07:25:39.428Z,56.30
2017-10-30T07:28:05.961Z,55.80
2017-10-30T07:30:32.355Z,55.50
2017-10-30T07:32:58.803Z,55.10
2017-10-30T07:35:25.358Z,55.90
2017-10-30T07:37:52.231Z,55.50
2017-10-30T07:40:18.717Z,54.50
2017-10-30T07:42:47.097Z,54.90
2017-10-30T07:45:13.795Z,54.10
2017-10-30T07:47:40.893Z,54.50
2017-10-30T07:50:07.467Z,54.80
2017-10-30T07:52:36.161Z,54.30
2017-10-30T07:55:03.889Z,53.40
2017-10-30T07:57:30.149Z,53.50
2017-10-30T07:59:56.630Z,54.40
2017-10-30T08:02:27.310Z,53.70
2017-10-30T08:04:54.269Z,53.70
2017-10-30T08:07:20.667Z,53.20
2017-10-30T08:09:48.199Z,52.80
2017-10-30T08:12:15.431Z,52.20
2017-10-30T08:14:42.019Z,52.20
2017-10-30T08:17:08.491Z,52.40
2017-10-30T08:19:34.879Z,53.00
2017-10-30T08:22:01.431Z,52.40
2017-10-30T08:24:28.680Z,51.50
2017-10-30T08:26:55.761Z,51.30
2017-10-30T08:29:22.069Z,51.70
2017-10-30T08:34:28.745Z,52.40
2017-10-30T08:36:56.816Z,52.20
2017-10-30T08:39:24.124Z,51.70
2017-10-30T08:41:51.000Z,51.80
2017-10-30T08:44:17.842Z,50.80
2017-10-30T08:46:44.976Z,50.30
2017-10-30T08:49:11.803Z,50.30
2017-10-30T08:51:38.307Z,49.90
2017-10-30T08:54:04.902Z,50.50
2017-10-30T08:56:31.409Z,50.70
2017-10-30T08:58:57.855Z,49.70
2017-10-30T09:01:24.340Z,48.90
2017-10-30T09:03:50.806Z,49.60
2017-10-30T09:06:17.254Z,49.80
2017-10-30T09:08:44.258Z,48.90
2017-10-30T09:11:11.611Z,48.50
2017-10-30T09:13:38.355Z,49.30
2017-10-30T09:16:04.660Z,48.90
2017-10-30T09:18:31.027Z,48.30
2017-10-30T09:20:57.423Z,47.90
2017-10-30T09:23:23.782Z,47.80
2017-10-30T09:25:50.422Z,47.30
2017-10-30T09:28:16.750Z,47.80
2017-10-30T09:30:43.012Z,47.90
2017-10-30T09:33:09.322Z,47.90
2017-10-30T09:35:35.644Z,47.50
2017-10-30T09:38:02.014Z,48.00
2017-10-30T09:40:28.325Z,47.30
2017-10-30T09:42:54.750Z,48.10
2017-10-30T09:45:21.177Z,47.00
2017-10-30T09:47:47.448Z,47.20
2017-10-30T09:50:13.807Z,47.20
2017-10-30T09:52:40.946Z,45.00
2017-10-30T09:55:07.897Z,44.90
2017-10-30T09:57:35.111Z,45.70
2017-10-30T10:00:01.594Z,45.70
2017-10-30T10:02:27.926Z,44.10
2017-10-30T10:04:54.376Z,45.00
2017-10-30T10:07:20.703Z,44.10
2017-10-30T10:09:47.085Z,44.00
2017-10-30T10:12:13.446Z,43.40
2017-10-30T10:14:39.742Z,44.20
2017-10-30T10:17:06.136Z,43.40
2017-10-30T10:19:32.993Z,43.00
2017-10-30T10:22:00.095Z,42.30
2017-10-30T10:24:26.877Z,43.00
2017-10-30T10:26:53.619Z,43.10
2017-10-30T10:29:20.164Z,42.50
2017-10-30T10:31:46.744Z,41.20
2017-10-30T10:34:13.089Z,41.70
2017-10-30T10:36:39.688Z,42.00
2017-10-30T10:39:11.353Z,41.40
2017-10-30T10:41:38.104Z,42.00
2017-10-30T10:44:05.214Z,42.80
2017-10-30T10:46:31.538Z,42.80
2017-10-30T10:48:57.853Z,42.40
2017-10-30T10:51:24.465Z,42.90
2017-10-30T10:53:50.846Z,42.30
2017-10-30T10:56:17.408Z,41.70
2017-10-30T10:58:44.649Z,42.80
2017-10-30T11:01:11.014Z,42.90
2017-10-30T11:03:37.397Z,41.70
2017-10-30T11:06:03.854Z,41.40
2017-10-30T11:08:30.455Z,41.30
2017-10-30T11:10:56.746Z,40.50
2017-10-30T11:13:23.822Z,39.10
2017-10-30T11:15:50.942Z,39.00
2017-10-30T11:18:17.378Z,37.40
2017-10-30T11:20:43.891Z,38.60
2017-10-30T11:23:10.285Z,38.10
2017-10-30T11:25:36.601Z,40.20
2017-10-30T11:28:03.345Z,38.30
2017-10-30T11:30:29.681Z,36.40
2017-10-30T11:32:56.286Z,35.00
2017-10-30T11:35:22.854Z,35.90
2017-10-30T11:37:49.394Z,35.30
2017-10-30T11:40:16.482Z,34.40
2017-10-30T11:42:42.798Z,34.30
2017-10-30T11:45:09.274Z,34.50
2017-10-30T11:47:35.675Z,34.60
2017-10-30T11:50:03.102Z,34.40
2017-10-30T11:52:29.978Z,34.40
2017-10-30T11:54:56.417Z,35.00
2017-10-30T11:57:22.914Z,33.80
2017-10-30T11:59:49.306Z,34.20
2017-10-30T12:02:15.622Z,34.20
2017-10-30T12:04:41.996Z,33.70
2017-10-30T12:07:08.558Z,33.70
2017-10-30T12:09:35.098Z,33.60
2017-10-30T12:12:01.591Z,32.80
2017-10-30T12:14:27.906Z,32.80
2017-10-30T12:16:59.232Z,33.40
2017-10-30T12:19:28.811Z,33.30
2017-10-30T12:21:55.208Z,32.90
2017-10-30T12:24:21.545Z,32.10
2017-10-30T12:26:48.436Z,33.70
2017-10-30T12:29:14.730Z,33.70
2017-10-30T12:31:41.810Z,32.90
2017-10-30T12:34:08.112Z,32.90
2017-10-30T12:41:37.578Z,33.50
2017-10-30T12:44:03.884Z,34.10
2017-10-30T12:46:31.026Z,33.40
2017-10-30T12:48:58.272Z,33.40
2017-10-30T12:51:26.733Z,32.30
2017-10-30T12:53:53.373Z,32.30
2017-10-30T12:56:19.665Z,31.90
2017-10-30T12:58:45.976Z,32.70
2017-10-30T13:01:12.244Z,32.90
2017-10-30T13:03:38.540Z,33.20
2017-10-30T13:06:05.639Z,33.20
2017-10-30T13:08:32.634Z,33.20
2017-10-30T13:10:58.966Z,33.20
2017-10-30T13:13:27.008Z,33.40
2017-10-30T13:15:53.712Z,34.50
2017-10-30T13:21:24.602Z,35.30
2017-10-30T13:23:51.123Z,34.60
2017-10-30T13:26:17.527Z,35.00
2017-10-30T13:28:44.188Z,35.60
2017-10-30T13:31:10.646Z,36.00
2017-10-30T13:33:37.172Z,36.50
2017-10-30T13:36:03.654Z,36.60
2017-10-30T13:38:29.953Z,37.10
2017-10-30T13:40:56.242Z,36.80
2017-10-30T13:43:23.442Z,36.70
2017-10-30T13:45:49.687Z,36.70
2017-10-30T13:48:16.692Z,35.80
2017-10-30T13:50:43.004Z,35.80
2017-10-30T13:53:09.414Z,36.80
2017-10-30T13:55:35.721Z,35.70
2017-10-30T13:58:02.779Z,36.60
2017-10-30T14:00:29.045Z,36.00
2017-10-30T14:02:55.291Z,37.40
2017-10-30T14:05:22.719Z,36.20
2017-10-30T14:07:49.598Z,36.40
2017-10-30T14:10:15.937Z,37.70
2017-10-30T14:12:45.422Z,37.20
2017-10-30T14:15:12.367Z,37.40
2017-10-30T14:17:38.668Z,38.10
2017-10-30T14:20:05.209Z,36.80
2017-10-30T14:22:38.738Z,36.30
2017-10-30T14:25:06.057Z,36.90
2017-10-30T14:27:32.574Z,37.00
2017-10-30T14:29:59.292Z,38.00
2017-10-30T14:32:26.142Z,37.50
2017-10-30T14:34:52.400Z,36.20
2017-10-30T14:37:18.734Z,37.00
2017-10-30T14:39:45.093Z,37.20
2017-10-30T14:42:11.798Z,36.80
2017-10-30T14:44:38.097Z,36.80
2017-10-30T14:47:04.456Z,37.20
2017-10-30T14:49:30.729Z,37.50
2017-10-30T14:51:58.601Z,37.50
2017-10-30T14:54:25.409Z,36.80
2017-10-30T14:57:00.876Z,37.20
2017-10-30T14:59:27.993Z,37.80
2017-10-30T15:01:57.493Z,37.80
2017-10-30T15:04:27.299Z,37.30
2017-10-30T15:06:55.350Z,37.30
2017-10-30T15:09:24.990Z,37.50
2017-10-30T15:11:51.615Z,38.30
2017-10-30T15:14:18.020Z,38.30
2017-10-30T15:16:45.425Z,37.70
2017-10-30T15:19:30.646Z,38.50
2017-10-30T15:24:59.074Z,38.20
2017-10-30T15:27:48.827Z,38.90
2017-10-30T15:30:23.121Z,38.30
2017-10-30T15:38:23.321Z,38.60
2017-10-30T15:40:50.036Z,39.20
2017-10-30T15:43:16.830Z,39.40
2017-10-30T15:45:43.510Z,40.20
2017-10-30T15:50:49.625Z,40.40
2017-10-30T15:53:16.151Z,41.00
2017-10-30T15:55:43.165Z,40.30
2017-10-30T15:58:09.693Z,41.50
2017-10-30T16:00:40.909Z,41.50
2017-10-30T16:03:07.876Z,40.50
2017-10-30T16:08:05.411Z,41.50
2017-10-30T16:10:34.754Z,42.50
2017-10-30T16:13:01.391Z,41.70
2017-10-30T16:15:31.979Z,42.30
2017-10-30T16:18:02.960Z,42.20
2017-10-30T16:20:29.459Z,42.20
2017-10-30T16:22:55.944Z,43.20
2017-10-30T16:25:26.386Z,43.00
2017-10-30T16:27:52.857Z,42.60
2017-10-30T16:32:52.408Z,42.80
2017-10-30T16:35:19.074Z,42.90
2017-10-30T16:37:45.632Z,44.00
2017-10-30T16:42:46.303Z,43.40
2017-10-30T16:45:12.926Z,44.00
2017-10-30T16:47:39.251Z,43.50
2017-10-30T16:50:05.746Z,44.00
2017-10-30T16:52:34.016Z,44.00
2017-10-30T16:55:01.019Z,44.00
2017-10-30T17:00:36.155Z,44.00
2017-10-30T17:03:03.088Z,44.00
2017-10-30T17:08:33.429Z,44.00
2017-10-30T17:14:09.280Z,44.80
2017-10-30T17:19:50.708Z,44.40
2017-10-30T17:22:20.451Z,44.70
2017-10-30T17:24:47.101Z,45.00
2017-10-30T17:27:13.561Z,44.80
2017-10-30T17:29:40.022Z,44.00
2017-10-30T17:32:06.338Z,44.80
2017-10-30T17:34:32.910Z,45.40
2017-10-30T17:37:05.771Z,45.40
2017-10-30T17:39:39.089Z,45.20
2017-10-30T17:42:05.900Z,45.20
2017-10-30T17:44:32.470Z,44.70
2017-10-30T17:46:58.797Z,44.60
2017-10-30T17:49:25.041Z,45.00
2017-10-30T17:51:51.580Z,44.30
2017-10-30T17:54:18.622Z,44.30
2017-10-30T17:56:45.040Z,45.40
2017-10-30T17:59:11.455Z,45.40
2017-10-30T18:01:38.345Z,44.70
2017-10-30T18:04:07.469Z,45.30
2017-10-30T18:09:06.995Z,45.50
2017-10-30T18:11:33.717Z,45.20
2017-10-30T18:14:00.203Z,45.50
2017-10-30T18:16:26.642Z,45.40
2017-10-30T18:18:53.115Z,45.50
2017-10-30T18:21:27.587Z,46.10
2017-10-30T18:23:54.026Z,46.10
2017-10-30T18:26:20.453Z,46.40
2017-10-30T18:28:57.503Z,46.40
2017-10-30T18:31:28.886Z,45.80
2017-10-30T18:33:57.865Z,46.40
2017-10-30T18:36:24.271Z,46.50
2017-10-30T18:38:51.275Z,46.10
2017-10-30T18:41:19.500Z,46.60
2017-10-30T18:43:46.430Z,46.70
2017-10-30T18:46:12.949Z,46.60
2017-10-30T18:48:39.905Z,45.90
2017-10-30T18:51:06.406Z,46.50
2017-10-30T18:53:32.929Z,47.20
2017-10-30T18:55:59.478Z,46.80
2017-10-30T18:58:26.175Z,46.10
2017-10-30T19:00:52.805Z,46.70
2017-10-30T19:03:19.312Z,46.30
2017-10-30T19:05:45.948Z,45.90
2017-10-30T19:08:13.070Z,46.10
2017-10-30T19:19:17.169Z,46.10
2017-10-30T19:21:44.766Z,46.70
2017-10-30T19:24:11.743Z,45.80
2017-10-30T19:26:38.807Z,45.90
2017-10-30T19:29:05.247Z,46.20
2017-10-30T19:31:31.629Z,46.20
2017-10-30T19:33:57.945Z,45.80
2017-10-30T19:36:24.438Z,45.80
2017-10-30T19:38:51.112Z,46.50
2017-10-30T19:41:17.650Z,46.70
2017-10-30T19:43:44.351Z,46.10
2017-10-30T19:46:27.183Z,46.70
2017-10-30T19:48:53.494Z,46.20
2017-10-30T19:51:20.099Z,46.70
2017-10-30T19:53:46.939Z,45.90
2017-10-30T19:56:13.322Z,46.60
2017-10-30T19:58:39.672Z,47.10
2017-10-30T20:01:06.180Z,47.20
2017-10-30T20:03:32.513Z,47.70
2017-10-30T20:06:08.808Z,47.80
2017-10-30T20:08:48.274Z,47.80
2017-10-30T20:11:20.962Z,48.70
2017-10-30T20:13:47.270Z,48.90
2017-10-30T20:16:15.091Z,50.00
2017-10-30T20:18:42.015Z,49.90
2017-10-30T20:21:09.411Z,50.20
2017-10-30T20:23:36.462Z,50.60
2017-10-30T20:26:02.777Z,50.60
2017-10-30T20:28:29.116Z,51.30
2017-10-30T20:30:55.502Z,50.20
2017-10-30T20:33:21.741Z,50.40
2017-10-30T20:35:48.162Z,50.10
2017-10-30T20:38:14.522Z,51.10
2017-10-30T20:40:40.872Z,51.40
2017-10-30T20:43:07.454Z,52.00
2017-10-30T20:48:05.194Z,52.00
2017-10-30T20:50:35.082Z,51.90
2017-10-30T20:53:02.334Z,52.30
2017-10-30T20:58:07.603Z,52.70
2017-10-30T21:00:33.978Z,52.50
2017-10-30T21:03:00.371Z,52.70
2017-10-30T21:05:26.733Z,52.30
2017-10-30T21:07:53.028Z,53.30
2017-10-30T21:10:19.414Z,53.10
2017-10-30T21:12:45.810Z,53.90
2017-10-30T21:15:13.552Z,54.10
2017-10-30T21:17:39.869Z,53.80
2017-10-30T21:20:06.199Z,54.70
2017-10-30T21:22:32.515Z,54.60
2017-10-30T21:24:58.851Z,54.80
2017-10-30T21:27:25.179Z,54.50
2017-10-30T21:29:52.197Z,55.60
2017-10-30T21:32:18.714Z,55.60
2017-10-30T21:34:45.054Z,55.30
2017-10-30T21:37:11.352Z,55.50
2017-10-30T21:39:37.677Z,55.50
2017-10-30T21:42:04.022Z,56.10
2017-10-30T21:44:31.071Z,56.70
2017-10-30T21:46:57.366Z,56.70
2017-10-30T21:49:23.666Z,56.60
2017-10-30T21:51:50.602Z,56.80
2017-10-30T21:54:17.000Z,56.50
2017-10-30T21:56:43.255Z,56.60
2017-10-30T21:59:09.581Z,56.50
2017-10-30T22:01:36.061Z,56.90
2017-10-30T22:04:02.348Z,57.10
2017-10-30T22:06:28.588Z,57.20
2017-10-30T22:08:54.861Z,57.70
2017-10-30T22:11:21.170Z,57.60
2017-10-30T22:13:47.503Z,57.30
2017-10-30T22:16:13.755Z,57.50
2017-10-30T22:18:40.186Z,57.50
2017-10-30T22:21:06.436Z,58.10
2017-10-30T22:23:32.693Z,58.20
2017-10-30T22:25:58.963Z,58.10
2017-10-30T22:28:25.221Z,58.40
2017-10-30T22:30:51.455Z,58.50
2017-10-30T22:33:17.685Z,58.40
2017-10-30T22:35:43.942Z,58.70
2017-10-30T22:38:10.235Z,58.80
2017-10-30T22:40:36.566Z,59.60
2017-10-30T22:43:02.864Z,59.50
2017-10-30T22:45:29.143Z,59.40
2017-10-30T22:47:55.459Z,59.50
2017-10-30T22:50:22.500Z,59.50
2017-10-30T22:52:48.903Z,59.50
2017-10-30T22:55:15.349Z,59.60
2017-10-30T22:57:41.639Z,59.50
2017-10-30T23:00:07.921Z,59.40
2017-10-30T23:02:34.411Z,59.50
2017-10-30T23:05:00.929Z,59.30
2017-10-30T23:07:27.207Z,59.40
2017-10-30T23:09:54.298Z,59.40
2017-10-30T23:12:20.591Z,59.40
2017-10-30T23:14:46.850Z,59.30
2017-10-30T23:17:13.398Z,59.50
2017-10-30T23:19:39.797Z,59.30
2017-10-30T23:22:06.085Z,60.00
2017-10-30T23:24:32.502Z,60.10
2017-10-30T23:26:58.941Z,60.10
2017-10-30T23:29:26.039Z,60.20
2017-10-30T23:31:52.414Z,60.10
2017-10-30T23:34:18.733Z,60.70
2017-10-30T23:36:45.024Z,60.50
2017-10-30T23:39:12.069Z,60.40
2017-10-30T23:41:39.073Z,60.20
2017-10-30T23:44:05.586Z,60.00
2017-10-30T23:46:31.938Z,60.30
2017-10-30T23:48:59.079Z,60.60
2017-10-30T23:51:25.354Z,60.50
2017-10-30T23:53:51.641Z,60.60
2017-10-30T23:56:17.906Z,60.90
2017-10-30T23:58:44.340Z,60.70
